Time;durP1;ratioP1;P1;durP2;ratioP2;P2;SDS_P1;SDS_P2;PMS_P1;PMS_P2;Temp;Humidity;BMP_temperature;BMP_pressure;BME280_temperature;BME280_humidity;BME280_pressure;Samples;Min_cycle;Max_cycle;Signal;HPM_P1;HPM_P2
2022/04/14 00:01:55;;;;;;;17.97;16.27;;;15.50;86.80;;;;;;5095611;28;20465;-63
2022/04/14 00:04:22;;;;;;;16.00;14.60;;;15.50;86.90;;;;;;5096210;28;20476;-63
2022/04/14 00:06:48;;;;;;;16.30;14.70;;;15.50;87.00;;;;;;5093253;28;20943;-63
2022/04/14 00:09:15;;;;;;;15.67;14.07;;;15.50;87.10;;;;;;5096220;28;20472;-63
2022/04/14 00:11:42;;;;;;;14.47;13.07;;;15.50;86.90;;;;;;5095944;28;20963;-63
2022/04/14 00:14:11;;;;;;;15.70;14.20;;;15.50;86.80;;;;;;5095557;28;20796;-63
2022/04/14 00:16:37;;;;;;;15.23;13.73;;;15.50;86.70;;;;;;5095433;28;20437;-63
2022/04/14 00:19:04;;;;;;;15.00;13.60;;;15.40;86.70;;;;;;5095473;28;20223;-63
2022/04/14 00:21:31;;;;;;;15.27;13.77;;;15.50;86.90;;;;;;5095280;28;20989;-63
2022/04/14 00:23:58;;;;;;;14.47;13.07;;;15.50;87.00;;;;;;5095586;28;20465;-64
2022/04/14 00:26:25;;;;;;;14.52;13.13;;;15.40;87.00;;;;;;5095881;28;20469;-64
2022/04/14 00:28:51;;;;;;;14.13;11.93;;;15.40;87.10;;;;;;5095184;28;20226;-64
2022/04/14 00:31:20;;;;;;;12.83;11.63;;;15.40;87.20;;;;;;5094390;28;20789;-64
2022/04/14 00:33:46;;;;;;;14.00;12.40;;;15.40;87.30;;;;;;5093829;28;20477;-64
2022/04/14 00:36:13;;;;;;;12.70;10.80;;;15.40;87.30;;;;;;5095677;28;20801;-64
2022/04/14 00:38:40;;;;;;;13.90;11.47;;;15.40;87.30;;;;;;5095631;28;20483;-64
2022/04/14 00:41:07;;;;;;;13.20;12.10;;;15.40;87.20;;;;;;5094982;28;20473;-64
2022/04/14 00:43:35;;;;;;;13.50;11.90;;;15.40;87.20;;;;;;5095443;28;20510;-64
2022/04/14 00:46:04;;;;;;;13.33;11.93;;;15.30;87.10;;;;;;5095109;28;20469;-63
2022/04/14 00:48:32;;;;;;;12.20;11.00;;;15.30;87.30;;;;;;5095186;28;20465;-63
2022/04/14 00:51:00;;;;;;;12.20;11.00;;;15.30;87.50;;;;;;5095138;28;20470;-63
2022/04/14 00:53:27;;;;;;;13.43;12.10;;;15.30;87.60;;;;;;5082084;28;20607;-63
2022/04/14 00:55:54;;;;;;;12.93;11.73;;;15.30;87.80;;;;;;5092032;28;20476;-63
2022/04/14 00:58:21;;;;;;;11.53;10.53;;;15.20;87.70;;;;;;5094980;28;21012;-66
2022/04/14 01:00:48;;;;;;;12.10;10.87;;;15.30;87.90;;;;;;5094441;28;20474;-63
2022/04/14 01:03:17;;;;;;;12.40;11.27;;;15.30;88.00;;;;;;5094292;28;20457;-63
2022/04/14 01:05:46;;;;;;;11.20;10.10;;;15.20;87.90;;;;;;5095136;28;20515;-63
2022/04/14 01:08:17;;;;;;;11.83;10.63;;;15.20;87.90;;;;;;5094123;28;20457;-63
2022/04/14 01:10:48;;;;;;;12.20;11.00;;;15.20;87.80;;;;;;5094871;28;20458;-63
2022/04/14 01:13:15;;;;;;;12.25;11.02;;;15.20;87.60;;;;;;5094200;28;20552;-63
2022/04/14 01:15:42;;;;;;;11.20;10.20;;;15.20;87.80;;;;;;5094901;28;20234;-63
2022/04/14 01:18:09;;;;;;;12.50;10.47;;;15.20;87.80;;;;;;5094396;28;20971;-63
2022/04/14 01:20:36;;;;;;;10.73;9.73;;;15.20;87.60;;;;;;5094691;28;20469;-63
2022/04/14 01:23:05;;;;;;;10.40;9.50;;;15.20;87.40;;;;;;5094443;28;20472;-63
2022/04/14 01:25:35;;;;;;;11.87;10.87;;;15.20;87.50;;;;;;5094582;28;20469;-63
2022/04/14 01:28:02;;;;;;;11.15;10.05;;;15.20;87.40;;;;;;5086469;28;20472;-63
2022/04/14 01:30:29;;;;;;;11.67;10.47;;;15.20;87.20;;;;;;5094500;28;20666;-63
2022/04/14 01:32:56;;;;;;;10.10;9.20;;;15.20;87.00;;;;;;5091481;28;20469;-63
2022/04/14 01:35:24;;;;;;;10.40;9.57;;;15.20;86.90;;;;;;5094570;28;20472;-64
2022/04/14 01:37:51;;;;;;;13.63;9.77;;;15.20;86.80;;;;;;5094048;28;20489;-64
2022/04/14 01:40:18;;;;;;;11.70;10.60;;;15.20;86.90;;;;;;5093900;28;20472;-64
2022/04/14 01:42:46;;;;;;;11.73;10.53;;;15.20;87.10;;;;;;5094426;28;20480;-64
2022/04/14 01:45:13;;;;;;;10.70;9.80;;;15.20;87.50;;;;;;5093731;28;20492;-64
2022/04/14 01:47:41;;;;;;;10.63;9.70;;;15.20;87.50;;;;;;5090870;28;20481;-64
2022/04/14 01:50:10;;;;;;;11.70;10.60;;;15.20;87.40;;;;;;5080513;28;20465;-64
2022/04/14 01:52:37;;;;;;;11.17;10.07;;;15.20;87.60;;;;;;5094049;28;20469;-64
2022/04/14 01:55:04;;;;;;;10.80;9.70;;;15.10;87.80;;;;;;5092281;28;20465;-64
2022/04/14 01:57:31;;;;;;;10.47;9.57;;;15.10;88.60;;;;;;5091608;28;20484;-64
2022/04/14 01:59:59;;;;;;;10.90;9.97;;;15.10;87.80;;;;;;5093541;28;20481;-64
2022/04/14 02:02:27;;;;;;;11.47;8.87;;;15.10;87.80;;;;;;5093030;28;20457;-64
2022/04/14 02:04:54;;;;;;;13.17;9.17;;;15.10;87.80;;;;;;5094148;28;20496;-64
2022/04/14 02:07:21;;;;;;;13.80;10.83;;;15.10;87.80;;;;;;5092030;28;20454;-63
2022/04/14 02:09:48;;;;;;;9.73;8.73;;;15.10;88.00;;;;;;5093728;28;20472;-63
2022/04/14 02:12:14;;;;;;;10.03;9.10;;;15.10;88.10;;;;;;5093187;28;20473;-63
2022/04/14 02:14:43;;;;;;;9.05;8.20;;;15.10;87.90;;;;;;5093862;28;20800;-63
2022/04/14 02:17:11;;;;;;;10.50;9.33;;;15.10;87.90;;;;;;5093116;28;20329;-63
2022/04/14 02:19:38;;;;;;;9.83;8.93;;;15.00;88.00;;;;;;5093991;28;20480;-63
2022/04/14 02:22:05;;;;;;;9.75;8.70;;;15.00;88.00;;;;;;5093032;28;20483;-64
2022/04/14 02:24:32;;;;;;;9.30;8.50;;;15.00;87.90;;;;;;5093720;28;20219;-63
2022/04/14 02:26:59;;;;;;;11.00;10.00;;;15.00;88.00;;;;;;5093214;28;20488;-63
2022/04/14 02:29:26;;;;;;;10.10;9.20;;;15.00;88.00;;;;;;5093265;28;20468;-64
2022/04/14 02:31:56;;;;;;;10.70;8.95;;;15.00;88.10;;;;;;5090109;28;20938;-63
2022/04/14 02:34:25;;;;;;;11.63;9.60;;;15.00;87.80;;;;;;5093117;28;20687;-63
2022/04/14 02:36:52;;;;;;;10.70;9.45;;;15.00;87.40;;;;;;5093254;28;20473;-63
2022/04/14 02:39:19;;;;;;;10.67;9.63;;;15.00;86.70;;;;;;5093023;28;22460;-63
2022/04/14 02:41:46;;;;;;;15.33;13.73;;;15.00;86.60;;;;;;5093360;28;20465;-63
2022/04/14 02:44:13;;;;;;;14.13;12.63;;;14.90;86.20;;;;;;5092465;28;20461;-64
2022/04/14 02:46:40;;;;;;;13.80;12.50;;;15.00;86.30;;;;;;5093244;28;20468;-63
2022/04/14 02:49:07;;;;;;;14.07;11.47;;;15.00;85.90;;;;;;5091843;28;20476;-63
2022/04/14 02:51:35;;;;;;;11.63;10.43;;;15.00;85.80;;;;;;5092343;28;20473;-64
2022/04/14 02:54:02;;;;;;;13.90;12.60;;;15.00;85.50;;;;;;5092790;28;20469;-65
2022/04/14 02:56:28;;;;;;;15.27;13.73;;;15.00;85.00;;;;;;5091065;28;20231;-64
2022/04/14 02:58:55;;;;;;;14.87;13.30;;;15.00;84.90;;;;;;5091589;28;20828;-65
2022/04/14 03:01:22;;;;;;;13.57;12.20;;;15.00;84.70;;;;;;5092643;28;20461;-64
2022/04/14 03:03:49;;;;;;;14.93;13.40;;;15.00;84.70;;;;;;5092715;28;20231;-64
2022/04/14 03:06:21;;;;;;;14.03;12.63;;;15.00;84.80;;;;;;5092349;28;20454;-64
2022/04/14 03:08:49;;;;;;;16.80;13.97;;;15.00;84.70;;;;;;5092390;28;20805;-64
2022/04/14 03:11:16;;;;;;;14.80;13.30;;;15.00;84.60;;;;;;5081655;28;20473;-64
2022/04/14 03:13:43;;;;;;;15.40;13.83;;;15.00;84.60;;;;;;5092843;28;20457;-65
2022/04/14 03:16:10;;;;;;;14.30;12.80;;;15.00;84.50;;;;;;5092561;28;20963;-63
2022/04/14 03:18:37;;;;;;;15.40;13.80;;;14.90;84.40;;;;;;5092165;28;20552;-63
2022/04/14 03:21:04;;;;;;;13.80;12.47;;;14.90;84.30;;;;;;5092374;28;20222;-63
2022/04/14 03:23:31;;;;;;;16.07;14.47;;;14.80;84.20;;;;;;5092174;28;20954;-63
2022/04/14 03:25:59;;;;;;;14.27;12.50;;;14.90;84.20;;;;;;5091246;28;20469;-63
2022/04/14 03:28:26;;;;;;;18.88;13.43;;;14.90;84.40;;;;;;5092359;28;20223;-63
2022/04/14 03:30:53;;;;;;;13.93;11.33;;;14.80;85.00;;;;;;5092778;28;20673;-64
2022/04/14 03:33:19;;;;;;;13.40;11.43;;;14.80;85.80;;;;;;5074064;28;20477;-63
2022/04/14 03:35:46;;;;;;;15.20;12.88;;;14.80;86.70;;;;;;5072572;28;20219;-64
2022/04/14 03:38:13;;;;;;;11.80;10.70;;;14.70;87.30;;;;;;5072093;28;20243;-64
2022/04/14 03:40:40;;;;;;;11.35;10.35;;;14.70;87.80;;;;;;5072496;28;20223;-64
2022/04/14 03:43:08;;;;;;;12.45;11.35;;;14.60;88.20;;;;;;5072142;28;20563;-64
2022/04/14 03:45:35;;;;;;;12.65;11.20;;;14.60;88.70;;;;;;5072493;28;20223;-64
2022/04/14 03:48:01;;;;;;;11.20;10.07;;;14.60;89.90;;;;;;5072610;28;20221;-64
2022/04/14 03:50:28;;;;;;;13.30;10.90;;;14.50;89.30;;;;;;5072068;28;20223;-64
2022/04/14 03:52:55;;;;;;;14.18;10.55;;;14.50;89.80;;;;;;5072270;28;20693;-64
2022/04/14 03:55:22;;;;;;;11.32;10.23;;;14.50;90.30;;;;;;5074044;28;20224;-64
2022/04/14 03:57:49;;;;;;;12.50;11.33;;;14.50;90.50;;;;;;5092586;28;20223;-64
2022/04/14 04:00:17;;;;;;;12.13;10.05;;;14.50;90.70;;;;;;5092004;28;20469;-64
2022/04/14 04:02:44;;;;;;;10.27;9.25;;;14.40;90.80;;;;;;5092462;28;20541;-64
2022/04/14 04:05:11;;;;;;;11.77;9.25;;;14.40;91.00;;;;;;5092174;28;20238;-64
2022/04/14 04:07:38;;;;;;;11.65;9.00;;;14.40;91.20;;;;;;5092375;28;20550;-64
2022/04/14 04:10:05;;;;;;;12.35;11.02;;;14.40;91.40;;;;;;5092521;28;20349;-64
2022/04/14 04:12:32;;;;;;;10.20;9.23;;;14.40;91.80;;;;;;5092019;28;20226;-64
2022/04/14 04:14:59;;;;;;;11.35;9.63;;;14.40;91.90;;;;;;5092464;28;20219;-64
2022/04/14 04:17:27;;;;;;;9.50;8.43;;;14.30;92.20;;;;;;5091974;28;20569;-65
2022/04/14 04:19:55;;;;;;;10.85;9.75;;;14.40;92.40;;;;;;5092420;28;20223;-65
2022/04/14 04:22:21;;;;;;;10.55;9.30;;;14.40;92.60;;;;;;5091687;28;20308;-65
2022/04/14 04:24:48;;;;;;;9.55;8.32;;;14.40;92.80;;;;;;5092414;28;20674;-64
2022/04/14 04:27:15;;;;;;;10.25;9.13;;;14.40;92.90;;;;;;5091837;28;20231;-64
2022/04/14 04:29:42;;;;;;;11.98;9.63;;;14.40;93.10;;;;;;5092178;28;20223;-64
2022/04/14 04:32:09;;;;;;;10.80;9.70;;;14.40;93.30;;;;;;5092040;28;20230;-64
2022/04/14 04:34:37;;;;;;;9.45;8.55;;;14.40;93.50;;;;;;5093388;28;20589;-63
2022/04/14 04:37:05;;;;;;;9.30;8.50;;;14.40;93.60;;;;;;5095908;28;20235;-64
2022/04/14 04:39:32;;;;;;;12.40;8.85;;;14.40;93.60;;;;;;5095488;28;20673;-64
2022/04/14 04:41:59;;;;;;;8.77;7.72;;;14.30;93.70;;;;;;5095451;28;20219;-64
2022/04/14 04:44:25;;;;;;;9.20;8.30;;;14.30;93.80;;;;;;5095218;28;20219;-64
2022/04/14 04:46:52;;;;;;;11.38;8.98;;;14.40;94.30;;;;;;5095601;28;20219;-64
2022/04/14 04:49:19;;;;;;;8.80;7.95;;;14.40;94.00;;;;;;5095109;28;20230;-65
2022/04/14 04:51:47;;;;;;;8.93;7.95;;;14.40;94.10;;;;;;5095514;28;20231;-64
2022/04/14 04:54:14;;;;;;;10.07;9.07;;;14.40;94.20;;;;;;5093150;28;20234;-64
2022/04/14 04:56:41;;;;;;;9.50;8.70;;;14.40;94.30;;;;;;5088464;28;20219;-65
2022/04/14 04:59:08;;;;;;;9.50;8.50;;;14.50;94.40;;;;;;5095083;28;20219;-64
2022/04/14 05:01:35;;;;;;;8.35;7.65;;;14.40;94.40;;;;;;5094931;28;20461;-64
2022/04/14 05:04:01;;;;;;;10.43;9.38;;;14.50;94.50;;;;;;5095220;28;20224;-64
2022/04/14 05:06:28;;;;;;;9.68;8.68;;;14.50;94.60;;;;;;5094829;28;20219;-64
2022/04/14 05:08:56;;;;;;;9.88;8.95;;;14.50;94.70;;;;;;5095348;28;20215;-64
2022/04/14 05:11:23;;;;;;;11.35;9.75;;;14.50;94.70;;;;;;5094580;28;20227;-65
2022/04/14 05:13:50;;;;;;;10.15;9.18;;;14.50;94.80;;;;;;5095012;28;20219;-64
2022/04/14 05:16:17;;;;;;;11.55;8.60;;;14.50;94.80;;;;;;5094644;28;20223;-64
2022/04/14 05:18:44;;;;;;;9.52;8.10;;;14.60;94.90;;;;;;5094886;28;20223;-64
2022/04/14 05:21:10;;;;;;;9.18;8.27;;;14.60;94.90;;;;;;5094931;28;20232;-63
2022/04/14 05:23:37;;;;;;;8.32;7.53;;;14.60;94.90;;;;;;5094420;28;20219;-63
2022/04/14 05:26:05;;;;;;;9.70;8.70;;;14.70;95.00;;;;;;5094669;28;20223;-65
2022/04/14 05:28:32;;;;;;;9.15;8.35;;;14.70;95.00;;;;;;5094481;28;20219;-63
2022/04/14 05:31:00;;;;;;;10.83;8.20;;;14.70;95.00;;;;;;5094530;28;20228;-63
2022/04/14 05:33:26;;;;;;;9.90;8.55;;;14.70;95.00;;;;;;5094005;28;20564;-64
2022/04/14 05:35:53;;;;;;;12.55;7.80;;;14.80;95.10;;;;;;5094919;28;20223;-64
2022/04/14 05:38:20;;;;;;;10.47;8.83;;;14.80;95.20;;;;;;5094090;28;20237;-64
2022/04/14 05:40:47;;;;;;;8.70;7.80;;;14.80;95.20;;;;;;5094793;28;20492;-63
2022/04/14 05:43:21;;;;;;;10.27;8.97;;;14.80;95.20;;;;;;5094377;28;20227;-64
2022/04/14 05:45:48;;;;;;;13.00;9.03;;;14.90;95.20;;;;;;5093887;28;20545;-63
2022/04/14 05:48:16;;;;;;;10.30;9.18;;;14.90;95.20;;;;;;5094499;28;20536;-64
2022/04/14 05:50:43;;;;;;;8.52;7.72;;;15.00;95.20;;;;;;5093930;28;20556;-64
2022/04/14 05:53:10;;;;;;;9.20;8.35;;;15.00;95.20;;;;;;5094361;28;20334;-64
2022/04/14 05:55:38;;;;;;;12.35;9.85;;;15.00;95.10;;;;;;5084737;28;20215;-63
2022/04/14 05:58:06;;;;;;;9.53;8.40;;;15.00;95.10;;;;;;5094096;28;20284;-63
2022/04/14 06:00:35;;;;;;;9.07;8.27;;;15.10;95.00;;;;;;5093579;28;20461;-63
2022/04/14 06:03:03;;;;;;;8.70;7.90;;;15.20;95.10;;;;;;5094088;28;20457;-64
2022/04/14 06:05:31;;;;;;;10.40;8.32;;;15.20;95.20;;;;;;5093609;28;20457;-64
2022/04/14 06:07:57;;;;;;;8.27;7.57;;;15.20;95.10;;;;;;5093875;28;20678;-65
2022/04/14 06:10:26;;;;;;;9.17;8.37;;;15.30;95.20;;;;;;5094164;28;20464;-63
2022/04/14 06:12:54;;;;;;;8.80;7.87;;;15.30;95.20;;;;;;5093623;28;20449;-65
2022/04/14 06:15:21;;;;;;;11.30;9.50;;;15.30;95.20;;;;;;5094049;28;20468;-65
2022/04/14 06:17:50;;;;;;;14.57;9.20;;;15.30;95.30;;;;;;5093479;28;20812;-63
2022/04/14 06:20:17;;;;;;;13.60;9.30;;;15.40;95.30;;;;;;5093895;28;20978;-64
2022/04/14 06:22:45;;;;;;;10.77;9.07;;;15.40;95.20;;;;;;5093254;28;20950;-64
2022/04/14 06:25:13;;;;;;;9.30;8.40;;;15.40;95.10;;;;;;5093977;28;20807;-65
2022/04/14 06:27:41;;;;;;;10.50;9.13;;;15.40;95.10;;;;;;5093294;28;20465;-63
2022/04/14 06:30:10;;;;;;;9.30;8.50;;;15.50;95.20;;;;;;5093600;28;20469;-64
2022/04/14 06:32:37;;;;;;;8.40;7.60;;;15.50;95.10;;;;;;5092960;28;20481;-64
2022/04/14 06:35:06;;;;;;;7.93;7.23;;;15.60;95.20;;;;;;5093481;28;20461;-64
2022/04/14 06:37:33;;;;;;;9.23;8.33;;;15.60;95.10;;;;;;5093032;28;20469;-64
2022/04/14 06:40:00;;;;;;;9.47;8.53;;;15.70;95.10;;;;;;5093691;28;20465;-64
2022/04/14 06:42:27;;;;;;;10.30;9.00;;;15.80;95.10;;;;;;5093371;28;20796;-64
2022/04/14 06:44:58;;;;;;;11.90;10.73;;;15.80;95.10;;;;;;5093007;28;20457;-64
2022/04/14 06:47:25;;;;;;;9.83;8.73;;;15.80;95.00;;;;;;5093193;28;20462;-64
2022/04/14 06:49:52;;;;;;;10.87;8.37;;;15.80;94.90;;;;;;5093296;28;20457;-64
2022/04/14 06:52:20;;;;;;;9.03;7.80;;;15.80;94.90;;;;;;5093343;28;20466;-64
2022/04/14 06:54:47;;;;;;;8.60;7.70;;;15.90;95.00;;;;;;5086384;28;20461;-65
2022/04/14 06:57:14;;;;;;;7.10;6.50;;;15.90;95.00;;;;;;5089825;28;20473;-63
2022/04/14 06:59:40;;;;;;;7.17;6.50;;;16.00;95.00;;;;;;5092478;28;20461;-64
2022/04/14 07:02:08;;;;;;;7.90;6.20;;;16.00;95.00;;;;;;5093018;28;20461;-64
2022/04/14 07:04:35;;;;;;;9.80;8.80;;;16.10;95.00;;;;;;5092558;28;20466;-63
2022/04/14 07:07:02;;;;;;;9.50;8.53;;;16.10;94.90;;;;;;5092873;28;20461;-63
2022/04/14 07:09:32;;;;;;;11.97;8.33;;;16.20;94.90;;;;;;5093172;28;20548;-63
2022/04/14 07:11:59;;;;;;;9.20;8.30;;;16.20;94.70;;;;;;5092760;28;20457;-63
2022/04/14 07:14:26;;;;;;;8.77;8.03;;;16.30;94.70;;;;;;5092876;28;20468;-63
2022/04/14 07:16:54;;;;;;;9.17;8.30;;;16.30;94.70;;;;;;5092568;28;20522;-63
2022/04/14 07:19:20;;;;;;;10.87;8.70;;;16.40;94.80;;;;;;5092664;28;20462;-63
2022/04/14 07:21:47;;;;;;;11.47;10.13;;;16.50;94.70;;;;;;5092278;28;20473;-64
2022/04/14 07:24:14;;;;;;;11.13;8.27;;;16.60;95.00;;;;;;5092980;28;20477;-63
2022/04/14 07:26:42;;;;;;;8.53;7.63;;;16.60;94.60;;;;;;5092311;28;20469;-64
2022/04/14 07:29:09;;;;;;;10.23;8.87;;;16.70;94.60;;;;;;5092685;28;20469;-64
2022/04/14 07:31:36;;;;;;;8.67;7.90;;;16.70;94.50;;;;;;5088718;28;20485;-63
2022/04/14 07:34:03;;;;;;;9.40;8.30;;;16.80;94.50;;;;;;5072577;28;20459;-63
2022/04/14 07:36:30;;;;;;;8.00;6.57;;;16.90;94.30;;;;;;5072785;28;20470;-64
2022/04/14 07:38:57;;;;;;;10.80;8.83;;;16.90;94.20;;;;;;5071961;28;20458;-64
2022/04/14 07:41:24;;;;;;;12.80;8.30;;;16.90;94.20;;;;;;5072399;28;20965;-64
2022/04/14 07:43:52;;;;;;;7.50;6.63;;;17.00;94.20;;;;;;5072104;28;20830;-64
2022/04/14 07:46:19;;;;;;;9.63;8.63;;;17.00;94.20;;;;;;5072511;28;20471;-64
2022/04/14 07:48:46;;;;;;;8.90;7.70;;;17.10;94.30;;;;;;5071822;28;20459;-63
2022/04/14 07:51:13;;;;;;;10.43;8.63;;;17.20;94.30;;;;;;5072492;28;20463;-64
2022/04/14 07:53:40;;;;;;;8.40;7.20;;;17.30;94.60;;;;;;5071843;28;20584;-64
2022/04/14 07:56:07;;;;;;;7.80;6.70;;;17.50;94.20;;;;;;5080624;28;20463;-64
2022/04/14 07:58:34;;;;;;;8.03;7.30;;;17.60;94.00;;;;;;5092088;28;20520;-63
2022/04/14 08:01:02;;;;;;;8.23;7.53;;;17.70;94.00;;;;;;5070942;28;20891;-65
2022/04/14 08:03:29;;;;;;;6.90;6.30;;;17.80;94.00;;;;;;5071593;28;20463;-64
2022/04/14 08:05:56;;;;;;;7.73;7.00;;;17.80;93.90;;;;;;5076057;28;20469;-64
2022/04/14 08:08:23;;;;;;;7.00;6.50;;;17.90;93.90;;;;;;5092057;28;20459;-64
2022/04/14 08:10:50;;;;;;;6.30;5.80;;;18.00;93.90;;;;;;5095159;28;20468;-64
2022/04/14 08:13:19;;;;;;;11.17;8.23;;;18.00;93.90;;;;;;5095871;28;20474;-65
2022/04/14 08:15:47;;;;;;;8.10;6.30;;;18.00;94.00;;;;;;5095644;28;20478;-65
2022/04/14 08:18:15;;;;;;;7.07;6.30;;;18.10;94.20;;;;;;5080002;28;20482;-65
2022/04/14 08:20:42;;;;;;;7.30;6.67;;;18.10;94.20;;;;;;5075630;28;20472;-64
2022/04/14 08:23:14;;;;;;;6.60;5.90;;;18.10;94.20;;;;;;5075942;28;20532;-65
2022/04/14 08:25:41;;;;;;;6.80;6.30;;;18.20;94.20;;;;;;5075957;28;20975;-65
2022/04/14 08:28:08;;;;;;;5.60;5.00;;;18.30;94.30;;;;;;5090049;28;20467;-64
2022/04/14 08:30:37;;;;;;;10.70;9.30;;;18.30;94.30;;;;;;5075648;28;20483;-65
2022/04/14 08:33:07;;;;;;;8.80;5.57;;;18.40;94.30;;;;;;5085764;28;20492;-64
2022/04/14 08:35:36;;;;;;;6.67;5.80;;;18.50;94.40;;;;;;5075656;28;20490;-63
2022/04/14 08:38:03;;;;;;;5.67;5.27;;;18.60;94.40;;;;;;5074998;28;20468;-63
2022/04/14 08:40:35;;;;;;;6.50;5.80;;;18.60;94.20;;;;;;5075302;28;20569;-65
2022/04/14 08:43:04;;;;;;;5.67;4.47;;;18.60;94.10;;;;;;5078264;28;20463;-64
2022/04/14 08:45:34;;;;;;;3.90;3.60;;;18.60;94.00;;;;;;5095646;28;20459;-64
2022/04/14 08:48:02;;;;;;;6.20;5.70;;;18.60;94.00;;;;;;5094354;28;20457;-64
2022/04/14 08:50:30;;;;;;;7.90;6.50;;;18.70;93.90;;;;;;5095467;28;20471;-63
2022/04/14 08:52:59;;;;;;;10.00;9.00;;;18.60;93.90;;;;;;5095141;28;20475;-64
2022/04/14 08:55:26;;;;;;;9.70;6.60;;;18.60;94.00;;;;;;5086123;28;20824;-64
2022/04/14 08:57:55;;;;;;;5.33;4.83;;;18.70;94.10;;;;;;5094999;28;20620;-64
2022/04/14 09:00:22;;;;;;;6.80;4.70;;;18.70;93.90;;;;;;5095062;28;20994;-62
2022/04/14 09:02:51;;;;;;;5.30;4.80;;;18.80;94.00;;;;;;5085380;28;20461;-64
2022/04/14 09:05:18;;;;;;;5.03;3.90;;;18.90;93.90;;;;;;5075123;28;20466;-63
2022/04/14 09:07:48;;;;;;;4.33;3.80;;;18.90;93.60;;;;;;5094810;28;20457;-65
2022/04/14 09:10:16;;;;;;;9.37;7.87;;;19.00;93.60;;;;;;5095377;28;20546;-64
2022/04/14 09:12:43;;;;;;;6.37;5.87;;;19.00;93.50;;;;;;5094764;28;20480;-64
2022/04/14 09:15:11;;;;;;;7.60;6.57;;;19.00;93.50;;;;;;5095012;28;20462;-62
2022/04/14 09:17:38;;;;;;;7.20;6.37;;;19.10;93.60;;;;;;5095208;28;20465;-63
2022/04/14 09:20:31;;;;;;;6.73;5.37;;;19.10;93.60;;;;;;5093711;28;21034;-64
2022/04/14 09:23:18;;;;;;;6.60;4.73;;;19.20;93.60;;;;;;5094610;28;20457;-65
2022/04/14 09:25:47;;;;;;;4.47;4.07;;;19.20;93.60;;;;;;5094533;28;20489;-63
2022/04/14 09:28:16;;;;;;;5.80;4.50;;;19.30;93.70;;;;;;5095067;28;20465;-64
2022/04/14 09:30:59;;;;;;;8.57;6.50;;;19.30;93.60;;;;;;5094539;28;20866;-63
2022/04/14 09:33:26;;;;;;;7.60;4.50;;;19.40;93.40;;;;;;5093270;28;20507;-64
2022/04/14 09:36:05;;;;;;;4.77;4.17;;;19.40;93.40;;;;;;5094435;28;20484;-65
2022/04/14 09:38:50;;;;;;;2.87;2.60;;;19.40;93.40;;;;;;5094347;28;20808;-64
2022/04/14 09:41:37;;;;;;;3.40;2.87;;;19.40;93.40;;;;;;5073874;28;20462;-64
2022/04/14 09:44:06;;;;;;;5.70;3.57;;;19.50;93.40;;;;;;5083311;28;20476;-64
2022/04/14 09:46:34;;;;;;;3.07;2.47;;;19.40;93.40;;;;;;5094042;28;21574;-64
2022/04/14 09:49:03;;;;;;;3.03;2.73;;;19.40;93.50;;;;;;5094534;28;20464;-65
2022/04/14 09:51:30;;;;;;;4.80;3.93;;;19.40;93.50;;;;;;5094094;28;20461;-64
2022/04/14 09:54:05;;;;;;;4.23;3.83;;;19.30;93.60;;;;;;5094385;28;20453;-64
2022/04/14 09:56:46;;;;;;;6.43;5.83;;;19.20;93.60;;;;;;5093724;28;20955;-63
2022/04/14 09:59:14;;;;;;;6.37;5.77;;;19.20;93.70;;;;;;5093419;28;20962;-65
2022/04/14 10:01:42;;;;;;;7.63;6.80;;;19.10;93.70;;;;;;5093908;28;20472;-64
2022/04/14 10:04:28;;;;;;;6.63;6.03;;;19.00;93.80;;;;;;5079029;28;20478;-65
2022/04/14 10:07:10;;;;;;;8.27;7.40;;;19.00;94.00;;;;;;5075296;28;20935;-64
2022/04/14 10:09:39;;;;;;;6.10;5.70;;;18.90;94.00;;;;;;5094151;28;20780;-64
2022/04/14 10:12:30;;;;;;;7.00;6.30;;;18.90;94.20;;;;;;5093481;28;20561;-63
2022/04/14 10:15:05;;;;;;;7.00;6.30;;;18.80;94.40;;;;;;5093339;28;20473;-65
2022/04/14 10:17:35;;;;;;;5.83;4.93;;;18.80;94.50;;;;;;5093899;28;20534;-64
2022/04/14 10:20:04;;;;;;;5.13;4.33;;;18.80;94.60;;;;;;5093578;28;20971;-64
2022/04/14 10:22:32;;;;;;;4.63;4.23;;;18.80;94.70;;;;;;5093878;28;20463;-64
2022/04/14 10:25:00;;;;;;;6.03;5.47;;;18.80;94.80;;;;;;5093455;28;20462;-64
2022/04/14 10:27:29;;;;;;;3.80;3.50;;;18.80;94.90;;;;;;5093611;28;20532;-63
2022/04/14 10:29:57;;;;;;;3.63;3.33;;;18.90;95.10;;;;;;5093308;28;20469;-64
2022/04/14 10:32:26;;;;;;;5.53;4.83;;;18.90;95.20;;;;;;5093641;28;20495;-64
2022/04/14 10:34:53;;;;;;;4.73;4.00;;;18.90;95.30;;;;;;5093126;28;20469;-64
2022/04/14 10:37:24;;;;;;;5.60;5.07;;;18.90;95.40;;;;;;5093487;28;20614;-64
2022/04/14 10:39:51;;;;;;;5.50;4.03;;;18.90;95.50;;;;;;5093459;28;20476;-64
2022/04/14 10:42:23;;;;;;;3.30;3.10;;;18.90;95.60;;;;;;5093442;28;20910;-64
2022/04/14 10:44:53;;;;;;;3.43;3.07;;;19.00;95.60;;;;;;5093436;28;20473;-64
2022/04/14 10:47:37;;;;;;;3.10;2.20;;;19.00;95.60;;;;;;5093039;28;20460;-63
2022/04/14 10:50:05;;;;;;;2.60;1.77;;;19.00;95.50;;;;;;5092890;28;20465;-64
2022/04/14 10:52:31;;;;;;;2.43;2.23;;;19.10;95.60;;;;;;5093469;28;20469;-64
2022/04/14 10:54:59;;;;;;;4.80;2.80;;;19.10;95.60;;;;;;5092786;28;20514;-63
2022/04/14 10:57:39;;;;;;;3.00;2.80;;;19.00;95.60;;;;;;5092844;28;20475;-63
2022/04/14 11:00:36;;;;;;;3.80;2.50;;;18.90;95.60;;;;;;5092783;28;20542;-62
2022/04/14 11:03:06;;;;;;;2.73;2.53;;;18.90;95.70;;;;;;5092787;28;20479;-64
2022/04/14 11:05:41;;;;;;;5.10;2.70;;;18.80;95.80;;;;;;5093077;28;20456;-64
2022/04/14 11:08:27;;;;;;;4.37;2.13;;;18.90;96.00;;;;;;5092692;28;20471;-64
2022/04/14 11:11:10;;;;;;;6.47;2.83;;;18.80;96.10;;;;;;5092734;28;20458;-64
2022/04/14 11:14:05;;;;;;;3.53;3.23;;;18.70;96.10;;;;;;5091499;28;20586;-64
2022/04/14 11:16:47;;;;;;;2.97;2.70;;;18.70;96.20;;;;;;5093074;28;20462;-65
2022/04/14 11:19:27;;;;;;;7.73;6.93;;;18.70;96.20;;;;;;5092988;28;20978;-65
2022/04/14 11:22:07;;;;;;;2.60;2.40;;;18.60;96.10;;;;;;5093243;28;20469;-63
2022/04/14 11:24:44;;;;;;;3.23;1.60;;;18.60;96.10;;;;;;5093275;28;20464;-64
2022/04/14 11:27:13;;;;;;;2.43;1.53;;;18.50;96.20;;;;;;5092603;28;20460;-63
2022/04/14 11:29:41;;;;;;;2.70;1.70;;;18.50;96.60;;;;;;5092913;28;20458;-63
2022/04/14 11:32:09;;;;;;;5.03;2.73;;;18.50;96.40;;;;;;5092245;28;20784;-64
2022/04/14 11:34:39;;;;;;;3.07;2.00;;;18.50;96.40;;;;;;5092694;28;20470;-64
2022/04/14 11:37:38;;;;;;;2.63;1.83;;;18.50;96.40;;;;;;5092645;28;20493;-64
2022/04/14 11:40:16;;;;;;;4.17;2.40;;;18.40;96.50;;;;;;5092305;28;20789;-64
2022/04/14 11:42:43;;;;;;;2.03;1.70;;;18.40;96.70;;;;;;5092496;28;21004;-64
2022/04/14 11:45:10;;;;;;;2.47;2.10;;;18.40;97.00;;;;;;5096418;28;20469;-64
2022/04/14 11:47:39;;;;;;;4.10;2.50;;;18.30;97.00;;;;;;5096577;28;20462;-64
2022/04/14 11:50:07;;;;;;;2.80;2.60;;;18.30;97.20;;;;;;5096334;28;20484;-64
2022/04/14 11:52:34;;;;;;;4.30;3.00;;;18.30;97.20;;;;;;5096571;28;20485;-65
2022/04/14 11:55:01;;;;;;;2.30;2.13;;;18.20;97.30;;;;;;5096055;28;20481;-64
2022/04/14 11:57:31;;;;;;;2.70;2.50;;;18.20;97.40;;;;;;5096568;28;20468;-64
2022/04/14 12:00:10;;;;;;;3.90;3.20;;;18.20;97.50;;;;;;5096055;28;20511;-64
2022/04/14 12:02:39;;;;;;;2.87;2.57;;;18.10;97.50;;;;;;5096498;28;20552;-63
2022/04/14 12:05:06;;;;;;;4.43;4.03;;;18.00;97.60;;;;;;5096090;28;20525;-63
2022/04/14 12:07:34;;;;;;;2.43;2.30;;;18.00;97.60;;;;;;5096555;28;20815;-63
2022/04/14 12:10:06;;;;;;;2.70;2.50;;;18.00;97.70;;;;;;5095961;28;20468;-63
2022/04/14 12:12:34;;;;;;;3.93;2.53;;;17.90;97.70;;;;;;5096338;28;20468;-63
2022/04/14 12:15:02;;;;;;;2.70;2.17;;;17.90;97.80;;;;;;5095857;28;20460;-63
2022/04/14 12:17:30;;;;;;;3.17;2.10;;;17.80;97.80;;;;;;5096238;28;20843;-63
2022/04/14 12:20:03;;;;;;;2.93;2.17;;;17.80;97.90;;;;;;5095499;28;20478;-64
2022/04/14 12:22:31;;;;;;;3.67;2.27;;;17.70;97.90;;;;;;5096462;28;20470;-64
2022/04/14 12:25:00;;;;;;;2.87;2.37;;;17.60;98.00;;;;;;5095610;28;20466;-64
2022/04/14 12:27:30;;;;;;;4.13;3.40;;;17.60;98.10;;;;;;5096002;28;20464;-65
2022/04/14 12:30:05;;;;;;;3.00;2.70;;;17.50;98.30;;;;;;5095641;28;20469;-64
2022/04/14 12:32:32;;;;;;;3.93;2.40;;;17.50;98.70;;;;;;5095903;28;20470;-64
2022/04/14 12:35:00;;;;;;;2.83;2.63;;;17.40;98.80;;;;;;5095357;28;20470;-63
2022/04/14 12:37:36;;;;;;;3.70;3.30;;;17.30;98.90;;;;;;5096051;28;20490;-63
2022/04/14 12:40:11;;;;;;;5.53;5.00;;;17.30;99.10;;;;;;5095435;28;20468;-63
2022/04/14 12:42:41;;;;;;;4.87;4.47;;;17.20;99.20;;;;;;5095706;28;20478;-64
2022/04/14 12:45:09;;;;;;;5.70;4.90;;;17.20;99.60;;;;;;5095188;28;20590;-63
2022/04/14 12:47:37;;;;;;;7.80;7.03;;;17.10;99.90;;;;;;5095794;28;20475;-63
2022/04/14 12:50:06;;;;;;;7.70;6.87;;;17.00;99.90;;;;;;5095469;28;20457;-64